LFST/SXB METAR and TAF weather

Enter ICAO airport designator
Station Type Date Time Source
LFST METAR 2019/07/17 18:30 UTC NOAA

LFST 171830Z AUTO 05003KT 9999 FEW011 26/10 Q1011 NOSIG


Station Type Date Time Source
LFST Decoded METAR 2019/07/17 18:30 UTC NOAA

Strasbourg, France (LFST) 48-33N 007-38E 154M
Jul 17, 2019 - 02:30 PM EDT / 2019.07.17 1830 UTC
Wind: from the NE (050 degrees) at 3 MPH (3 KT):0
Visibility: greater than 7 mile(s):0
Sky conditions: mostly clear
Temperature: 78 F (26 C)
Dew Point: 50 F (10 C)
Relative Humidity: 36%
Pressure (altimeter): 29.85 in. Hg (1011 hPa)
ob: LFST 171830Z AUTO 05003KT 9999 FEW011 26/10 Q1011 NOSIG
cycle: 18

Station Type Date Time Source
LFST TAF 2019/07/17 18:57 UTC NOAA

TAF
AMD LFST 171751Z 1718/1818 36005KT CAVOK
TEMPO 1811/1818 FEW070TCU SCT080 PROB40
TEMPO 1812/1818 VRB15G25KT FEW060CB

Example: see airport list